Houston, Texas
Traffic Map
Current Weather Conditions
Houston, Texas
Broken Clouds
Broken Clouds
60°
Feels Like: 60°
Wind Chill: 60° Ceiling: 3200
Heat Index: 60° Visibility: 10mi
Dew Point: 56° Wind: 16mph
Humidity: 86% Direction: 360° (N)
Pressure: 30.11in Gusts: 0mph
Raw Report DataKIAH 220853Z 36014KT 10SM FEW013 BKN032 16/13 A3011 RMK AO2 SLP195 T01560133 53013
Traffic Incident Summary
Active as of:
Severity:
Category:
InformationThere was an issue retrieving the traffic information for this location. Please try a different location or try again shortly.
Advertisements